createdAt,value
2019-02-11T00:00:49.767Z,4.90
2019-02-11T00:03:20.823Z,5.00
2019-02-11T00:05:49.814Z,5.00
2019-02-11T00:08:18.868Z,5.00
2019-02-11T00:10:47.891Z,5.00
2019-02-11T00:13:16.835Z,5.00
2019-02-11T00:15:46.887Z,5.00
2019-02-11T00:18:16.894Z,5.00
2019-02-11T00:20:45.794Z,5.00
2019-02-11T00:23:14.686Z,5.00
2019-02-11T00:25:45.715Z,5.00
2019-02-11T00:28:15.670Z,5.00
2019-02-11T00:30:44.855Z,5.00
2019-02-11T00:33:14.875Z,4.90
2019-02-11T00:35:43.920Z,5.00
2019-02-11T00:38:13.943Z,5.00
2019-02-11T00:40:42.907Z,5.00
2019-02-11T00:43:18.978Z,5.00
2019-02-11T00:45:43.617Z,5.00
2019-02-11T00:48:12.686Z,5.00
2019-02-11T00:50:47.715Z,5.00
2019-02-11T00:53:16.763Z,5.00
2019-02-11T00:55:45.788Z,5.00
2019-02-11T00:58:15.906Z,5.00
2019-02-11T01:00:44.942Z,5.00
2019-02-11T01:03:20.927Z,5.00
2019-02-11T01:05:51.075Z,5.00
2019-02-11T01:08:20.087Z,5.00
2019-02-11T01:10:50.122Z,5.00
2019-02-11T01:13:27.210Z,5.00
2019-02-11T01:15:55.535Z,5.00
2019-02-11T01:18:25.613Z,5.00
2019-02-11T01:20:56.513Z,5.00
2019-02-11T01:23:25.439Z,5.00
2019-02-11T01:25:54.394Z,5.10
2019-02-11T01:28:23.406Z,5.10
2019-02-11T01:30:54.473Z,5.10
2019-02-11T01:36:51.819Z,5.10
2019-02-11T01:39:21.964Z,5.20
2019-02-11T01:41:50.894Z,5.20
2019-02-11T01:44:19.855Z,5.20
2019-02-11T01:46:51.880Z,5.20
2019-02-11T01:49:23.008Z,5.20
2019-02-11T01:51:51.938Z,5.20
2019-02-11T01:54:21.910Z,5.20
2019-02-11T01:56:51.956Z,5.20
2019-02-11T01:59:21.002Z,5.20
2019-02-11T02:01:52.002Z,5.20
2019-02-11T02:04:20.961Z,5.30
2019-02-11T02:06:51.240Z,5.20
2019-02-11T02:09:20.238Z,5.30
2019-02-11T02:11:55.067Z,5.20
2019-02-11T02:14:23.927Z,5.10
2019-02-11T02:16:52.858Z,5.00
2019-02-11T02:19:28.784Z,5.00
2019-02-11T02:22:04.851Z,4.90
2019-02-11T02:24:34.918Z,4.80
2019-02-11T02:27:04.969Z,4.70
2019-02-11T02:29:36.054Z,4.60
2019-02-11T02:32:05.018Z,4.60
2019-02-11T02:34:34.063Z,4.60
2019-02-11T02:37:02.999Z,4.60
2019-02-11T02:39:34.055Z,4.60
2019-02-11T02:42:02.956Z,4.60
2019-02-11T02:44:32.224Z,4.60
2019-02-11T02:47:01.125Z,4.60
2019-02-11T02:49:30.119Z,4.60
2019-02-11T02:51:59.010Z,4.60
2019-02-11T02:54:29.123Z,4.60
2019-02-11T02:56:57.986Z,4.70
2019-02-11T02:59:28.020Z,4.70
2019-02-11T03:01:58.057Z,4.70
2019-02-11T03:04:26.947Z,4.70
2019-02-11T03:06:55.811Z,4.80
2019-02-11T03:09:26.786Z,4.80
2019-02-11T03:11:56.679Z,4.90
2019-02-11T03:14:25.991Z,5.00
2019-02-11T03:16:54.879Z,5.00
2019-02-11T03:19:23.880Z,5.10
2019-02-11T03:21:53.847Z,5.10
2019-02-11T03:24:22.791Z,5.10
2019-02-11T03:26:51.648Z,5.10
2019-02-11T03:29:20.939Z,5.00
2019-02-11T03:31:49.841Z,5.00
2019-02-11T03:34:18.744Z,5.00
2019-02-11T03:36:50.757Z,5.00
2019-02-11T03:39:19.732Z,4.90
2019-02-11T03:41:48.660Z,5.00
2019-02-11T03:44:19.814Z,4.90
2019-02-11T03:46:48.743Z,5.00
2019-02-11T03:49:18.047Z,4.90
2019-02-11T03:51:53.015Z,4.90
2019-02-11T03:54:23.203Z,4.90
2019-02-11T03:56:53.512Z,4.90
2019-02-11T03:59:22.577Z,4.90
2019-02-11T04:01:52.605Z,4.90
2019-02-11T04:04:22.703Z,4.90
2019-02-11T04:06:51.703Z,4.80
2019-02-11T04:09:20.579Z,4.90
2019-02-11T04:11:49.513Z,4.90
2019-02-11T04:14:24.554Z,4.90
2019-02-11T04:16:49.152Z,4.90
2019-02-11T04:19:19.187Z,4.90
2019-02-11T04:21:57.206Z,5.00
2019-02-11T04:24:31.867Z,5.00
2019-02-11T04:27:00.788Z,5.00
2019-02-11T04:29:29.808Z,5.00
2019-02-11T04:32:00.852Z,5.00
2019-02-11T04:34:31.898Z,5.10
2019-02-11T04:37:00.803Z,5.10
2019-02-11T04:39:29.781Z,5.10
2019-02-11T04:42:09.107Z,5.10
2019-02-11T04:44:39.198Z,5.10
2019-02-11T04:47:09.135Z,5.10
2019-02-11T04:49:39.217Z,5.10
2019-02-11T04:52:09.107Z,5.10
2019-02-11T04:54:43.989Z,5.10
2019-02-11T04:57:12.938Z,5.10
2019-02-11T04:59:41.968Z,5.10
2019-02-11T05:02:13.147Z,5.10
2019-02-11T05:04:42.059Z,5.10
2019-02-11T05:07:11.981Z,5.10
2019-02-11T05:09:41.102Z,5.10
2019-02-11T05:12:10.070Z,5.10
2019-02-11T05:14:43.742Z,5.10
2019-02-11T05:17:10.799Z,5.10
2019-02-11T05:19:39.743Z,5.10
2019-02-11T05:22:15.623Z,5.10
2019-02-11T05:24:44.543Z,5.20
2019-02-11T05:27:14.426Z,5.10
2019-02-11T05:29:44.444Z,5.10
2019-02-11T05:32:14.502Z,5.10
2019-02-11T05:34:44.496Z,5.10
2019-02-11T05:37:15.511Z,5.10
2019-02-11T05:39:44.507Z,5.10
2019-02-11T05:42:15.767Z,5.20
2019-02-11T05:44:54.032Z,5.10
2019-02-11T05:47:20.577Z,5.20
2019-02-11T05:49:49.479Z,5.10
2019-02-11T05:52:18.646Z,5.20
2019-02-11T05:54:47.912Z,5.10
2019-02-11T05:57:16.985Z,5.20
2019-02-11T05:59:46.397Z,5.20
2019-02-11T06:02:17.101Z,5.10
2019-02-11T06:04:47.199Z,5.10
2019-02-11T06:07:17.280Z,5.10
2019-02-11T06:09:46.403Z,5.10
2019-02-11T06:12:17.421Z,5.10
2019-02-11T06:14:48.432Z,5.00
2019-02-11T06:17:17.371Z,5.00
2019-02-11T06:19:48.291Z,5.00
2019-02-11T06:22:17.236Z,5.00
2019-02-11T06:24:46.153Z,5.00
2019-02-11T06:27:15.020Z,5.00
2019-02-11T06:29:45.000Z,5.00
2019-02-11T06:32:13.994Z,5.00
2019-02-11T06:34:43.978Z,5.00
2019-02-11T06:37:12.911Z,5.00
2019-02-11T06:39:41.955Z,5.00
2019-02-11T06:42:10.907Z,5.00
2019-02-11T06:44:39.870Z,5.00
2019-02-11T06:47:10.840Z,5.00
2019-02-11T06:49:40.878Z,5.00
2019-02-11T06:52:10.887Z,5.00
2019-02-11T06:54:40.829Z,5.00
2019-02-11T06:57:11.763Z,5.00
2019-02-11T06:59:40.757Z,5.00
2019-02-11T07:02:10.774Z,5.00
2019-02-11T07:04:40.982Z,5.00
2019-02-11T07:07:09.870Z,5.00
2019-02-11T07:09:38.864Z,5.00
2019-02-11T07:12:07.912Z,5.00
2019-02-11T07:14:36.919Z,5.00
2019-02-11T07:17:05.734Z,4.90
2019-02-11T07:19:34.642Z,4.90
2019-02-11T07:22:04.664Z,4.90
2019-02-11T07:24:33.647Z,4.90
2019-02-11T07:27:02.744Z,4.90
2019-02-11T07:29:32.110Z,4.80
2019-02-11T07:32:05.299Z,4.80
2019-02-11T07:34:35.446Z,4.80
2019-02-11T07:37:05.556Z,4.70
2019-02-11T07:39:34.613Z,4.70
2019-02-11T07:42:17.688Z,4.70
2019-02-11T07:44:53.630Z,4.80
2019-02-11T07:47:23.951Z,4.80
2019-02-11T07:50:00.024Z,4.80
2019-02-11T07:52:42.019Z,4.90
2019-02-11T07:55:11.019Z,4.90
2019-02-11T07:57:43.906Z,5.00
2019-02-11T08:00:15.308Z,5.00
2019-02-11T08:02:50.844Z,5.10
2019-02-11T08:05:22.367Z,5.10
2019-02-11T08:07:51.614Z,5.20
2019-02-11T08:10:20.752Z,5.30
2019-02-11T08:12:52.250Z,5.40
2019-02-11T08:15:22.930Z,5.40
2019-02-11T08:17:52.056Z,5.40
2019-02-11T08:20:23.154Z,5.40
2019-02-11T08:22:52.327Z,5.50
2019-02-11T08:25:21.498Z,5.60
2019-02-11T08:27:50.627Z,5.80
2019-02-11T08:30:20.758Z,6.00
2019-02-11T08:32:50.856Z,6.30
2019-02-11T08:35:21.083Z,6.60
2019-02-11T08:37:50.080Z,6.60
2019-02-11T08:40:19.260Z,6.50
2019-02-11T08:42:54.299Z,6.30
2019-02-11T08:45:23.289Z,6.10
2019-02-11T08:47:52.395Z,5.90
2019-02-11T08:50:24.631Z,5.80
2019-02-11T08:52:54.724Z,5.70
2019-02-11T08:55:23.795Z,5.70
2019-02-11T08:57:53.993Z,5.60
2019-02-11T09:00:25.219Z,5.60
2019-02-11T09:02:54.281Z,5.70
2019-02-11T09:05:23.236Z,5.90
2019-02-11T09:07:53.358Z,6.00
2019-02-11T09:10:22.519Z,6.00
2019-02-11T09:12:51.858Z,6.10
2019-02-11T09:15:27.051Z,6.10
2019-02-11T09:17:56.198Z,6.20
2019-02-11T09:45:45.818Z,6.20
2019-02-11T09:48:16.328Z,6.20
2019-02-11T09:50:49.341Z,6.40
2019-02-11T09:53:18.526Z,6.40
2019-02-11T09:55:50.121Z,6.40
2019-02-11T09:58:31.563Z,6.60
2019-02-11T10:01:01.785Z,6.80
2019-02-11T10:03:31.319Z,6.90
2019-02-11T10:06:12.872Z,6.80
2019-02-11T10:08:53.486Z,6.80
2019-02-11T10:11:24.000Z,6.70
2019-02-11T10:13:58.557Z,6.80
2019-02-11T10:16:30.159Z,7.00
2019-02-11T10:19:02.547Z,6.90
2019-02-11T10:21:31.556Z,6.90
2019-02-11T10:24:01.544Z,7.60
2019-02-11T10:26:34.003Z,7.40
2019-02-11T10:29:05.337Z,7.50
2019-02-11T10:31:40.207Z,7.30
2019-02-11T10:34:11.479Z,7.30
2019-02-11T10:36:55.402Z,7.20
2019-02-11T10:39:26.781Z,7.00
2019-02-11T10:42:04.282Z,6.90
2019-02-11T10:44:34.365Z,6.90
2019-02-11T10:47:03.547Z,6.80
2019-02-11T10:49:40.411Z,6.70
2019-02-11T10:52:09.482Z,6.90
2019-02-11T10:54:38.430Z,7.20
2019-02-11T10:57:12.466Z,7.30
2019-02-11T10:59:53.142Z,7.50
2019-02-11T11:02:26.921Z,7.70
2019-02-11T11:05:10.780Z,7.60
2019-02-11T11:07:51.606Z,7.50
2019-02-11T11:10:30.673Z,7.30
2019-02-11T11:13:00.845Z,7.30
2019-02-11T11:15:48.260Z,7.20
2019-02-11T11:18:18.580Z,7.10
2019-02-11T11:20:54.571Z,7.00
2019-02-11T11:23:23.524Z,6.80
2019-02-11T11:25:53.707Z,6.70
2019-02-11T11:28:31.839Z,6.80
2019-02-11T11:31:00.865Z,6.80
2019-02-11T11:33:30.918Z,7.00
2019-02-11T11:36:08.259Z,7.50
2019-02-11T11:38:37.379Z,8.10
2019-02-11T11:41:07.350Z,8.30
2019-02-11T11:43:51.360Z,8.50
2019-02-11T11:46:23.309Z,8.50
2019-02-11T11:48:53.211Z,8.90
2019-02-11T11:51:30.741Z,9.00
2019-02-11T11:54:01.816Z,9.10
2019-02-11T11:56:36.723Z,9.00
2019-02-11T11:59:05.730Z,8.40
2019-02-11T12:01:34.804Z,7.90
2019-02-11T12:04:06.548Z,7.80
2019-02-11T12:06:36.828Z,7.70
2019-02-11T12:09:12.833Z,7.50
2019-02-11T12:11:45.909Z,7.50
2019-02-11T12:14:18.011Z,7.50
2019-02-11T12:17:03.682Z,7.40
2019-02-11T12:19:36.865Z,7.50
2019-02-11T12:22:12.281Z,7.60
2019-02-11T12:24:42.859Z,7.70
2019-02-11T12:27:11.865Z,8.00
2019-02-11T12:29:40.827Z,8.40
2019-02-11T12:32:09.889Z,8.80
2019-02-11T12:34:38.921Z,9.00
2019-02-11T12:37:09.496Z,9.20
2019-02-11T12:39:38.921Z,9.50
2019-02-11T12:42:07.859Z,9.40
2019-02-11T12:44:36.927Z,9.20
2019-02-11T12:47:17.100Z,9.10
2019-02-11T12:49:46.077Z,9.00
2019-02-11T12:52:15.259Z,8.70
2019-02-11T12:54:44.259Z,8.70
2019-02-11T12:57:13.191Z,8.70
2019-02-11T12:59:44.220Z,8.60
2019-02-11T13:02:13.279Z,8.20
2019-02-11T13:04:42.387Z,8.00
2019-02-11T13:07:12.479Z,7.80
2019-02-11T13:09:42.510Z,8.00
2019-02-11T13:12:19.573Z,8.10
2019-02-11T13:14:49.635Z,7.90
2019-02-11T13:17:33.492Z,7.80
2019-02-11T13:20:07.891Z,7.80
2019-02-11T13:22:27.381Z,8.10
2019-02-11T13:24:58.436Z,8.10
2019-02-11T13:27:32.495Z,7.80
2019-02-11T13:30:12.402Z,7.70
2019-02-11T13:32:48.887Z,7.60
2019-02-11T13:35:18.992Z,7.80
2019-02-11T13:37:55.727Z,8.00
2019-02-11T13:40:33.984Z,8.00
2019-02-11T13:43:06.364Z,8.00
2019-02-11T13:45:42.110Z,7.90
2019-02-11T13:48:11.118Z,7.70
2019-02-11T13:50:42.307Z,7.60
2019-02-11T13:53:11.445Z,7.60
2019-02-11T13:55:40.606Z,7.60
2019-02-11T13:58:12.637Z,7.70
2019-02-11T14:00:42.791Z,7.90
2019-02-11T14:03:20.534Z,7.90
2019-02-11T14:05:56.946Z,8.00
2019-02-11T14:08:26.174Z,7.90
2019-02-11T14:11:03.351Z,7.50
2019-02-11T14:13:33.432Z,7.30
2019-02-11T14:16:02.665Z,7.20
2019-02-11T14:18:31.642Z,7.10
2019-02-11T14:21:00.545Z,7.00
2019-02-11T14:23:29.661Z,7.00
2019-02-11T14:25:59.693Z,7.10
2019-02-11T14:28:35.804Z,7.20
2019-02-11T14:31:04.742Z,7.20
2019-02-11T14:33:33.795Z,7.10
2019-02-11T14:36:05.430Z,7.20
2019-02-11T14:38:33.429Z,7.20
2019-02-11T14:41:02.406Z,7.00
2019-02-11T14:43:31.476Z,7.10
2019-02-11T14:48:47.252Z,7.00
2019-02-11T14:51:16.373Z,6.90
2019-02-11T14:53:45.532Z,6.80
2019-02-11T14:56:28.029Z,6.70
2019-02-11T14:58:57.031Z,6.60
2019-02-11T15:01:26.172Z,6.60
2019-02-11T15:03:55.183Z,6.50
2019-02-11T15:06:24.258Z,6.50
2019-02-11T15:08:59.215Z,6.40
2019-02-11T15:11:46.760Z,6.30
2019-02-11T15:14:16.880Z,6.20
2019-02-11T15:16:59.970Z,6.10
2019-02-11T15:22:28.073Z,6.00
2019-02-11T15:24:58.037Z,6.10
2019-02-11T15:36:03.913Z,6.00
2019-02-11T15:38:45.063Z,6.00
2019-02-11T15:44:11.952Z,5.80
2019-02-11T15:46:41.000Z,5.80
2019-02-11T15:49:10.935Z,5.80
2019-02-11T15:51:47.991Z,5.80
2019-02-11T15:54:17.005Z,5.80
2019-02-11T15:56:47.015Z,5.90
2019-02-11T15:59:16.936Z,5.90
2019-02-11T16:01:49.848Z,5.90
2019-02-11T16:04:19.766Z,5.80
2019-02-11T16:06:48.685Z,5.70
2019-02-11T16:09:25.574Z,5.70
2019-02-11T16:12:04.590Z,5.60
2019-02-11T16:14:35.588Z,5.50
2019-02-11T16:17:12.634Z,5.40
2019-02-11T16:19:43.538Z,5.40
2019-02-11T16:22:12.515Z,5.30
2019-02-11T16:24:47.415Z,5.20
2019-02-11T16:30:20.103Z,5.10
2019-02-11T16:32:51.254Z,5.10
2019-02-11T16:35:23.335Z,5.10
2019-02-11T16:40:28.542Z,5.00
2019-02-11T16:42:58.573Z,5.00
2019-02-11T16:45:32.840Z,5.00
2019-02-11T16:48:04.278Z,5.00
2019-02-11T16:50:34.537Z,4.90
2019-02-11T16:53:06.669Z,4.90
2019-02-11T16:55:35.779Z,4.90
2019-02-11T16:58:04.967Z,4.90
2019-02-11T17:00:34.083Z,4.90
2019-02-11T17:03:03.228Z,4.90
2019-02-11T17:05:35.792Z,4.90
2019-02-11T17:08:10.915Z,4.90
2019-02-11T17:10:41.472Z,4.80
2019-02-11T17:13:11.278Z,4.80
2019-02-11T17:15:41.108Z,4.80
2019-02-11T17:18:11.177Z,4.80
2019-02-11T17:20:49.937Z,4.80
2019-02-11T17:23:21.258Z,4.70
2019-02-11T17:25:50.671Z,4.70
2019-02-11T17:28:20.171Z,4.70
2019-02-11T17:30:50.810Z,4.70
2019-02-11T17:33:19.982Z,4.70
2019-02-11T17:35:50.131Z,4.70
2019-02-11T17:38:19.415Z,4.60
2019-02-11T17:40:48.771Z,4.70
2019-02-11T17:43:27.939Z,4.60
2019-02-11T17:45:58.024Z,4.60
2019-02-11T17:48:27.577Z,4.60
2019-02-11T17:50:58.848Z,4.60
2019-02-11T17:53:28.991Z,4.60
2019-02-11T17:55:58.263Z,4.60
2019-02-11T17:58:30.336Z,4.70
2019-02-11T18:01:01.508Z,4.70
2019-02-11T18:03:30.760Z,4.70
2019-02-11T18:06:01.193Z,4.70
2019-02-11T18:08:31.491Z,4.70
2019-02-11T18:11:01.307Z,4.70
2019-02-11T18:13:30.749Z,4.70
2019-02-11T18:16:00.002Z,4.70
2019-02-11T18:18:34.685Z,4.70
2019-02-11T18:21:04.918Z,4.80
2019-02-11T18:23:37.958Z,4.70
2019-02-11T18:26:07.070Z,4.80
2019-02-11T18:28:36.999Z,4.80
2019-02-11T18:31:09.160Z,4.80
2019-02-11T18:36:27.853Z,4.80
2019-02-11T18:38:57.827Z,4.80
2019-02-11T18:41:28.854Z,4.90
2019-02-11T18:44:00.863Z,4.80
2019-02-11T18:46:36.661Z,4.80
2019-02-11T18:49:21.842Z,4.70
2019-02-11T18:51:55.793Z,4.60
2019-02-11T18:54:24.630Z,4.60
2019-02-11T18:56:53.502Z,4.50
2019-02-11T18:59:24.710Z,4.40
2019-02-11T19:01:53.163Z,4.30
2019-02-11T19:04:22.128Z,4.30
2019-02-11T19:06:50.985Z,4.30
2019-02-11T19:09:20.378Z,4.30
2019-02-11T19:11:49.364Z,4.30
2019-02-11T19:14:18.223Z,4.30
2019-02-11T19:16:48.665Z,4.30
2019-02-11T19:19:17.711Z,4.30
2019-02-11T19:21:46.584Z,4.30
2019-02-11T19:24:15.607Z,4.20
2019-02-11T19:26:44.430Z,4.20
2019-02-11T19:29:13.278Z,4.20
2019-02-11T19:31:42.770Z,4.10
2019-02-11T19:34:12.265Z,4.10
2019-02-11T19:36:41.227Z,4.10
2019-02-11T19:39:10.148Z,4.10
2019-02-11T19:41:39.330Z,4.00
2019-02-11T19:44:08.302Z,4.10
2019-02-11T19:46:39.703Z,4.10
2019-02-11T19:49:08.590Z,4.10
2019-02-11T19:51:37.432Z,4.10
2019-02-11T19:54:07.744Z,4.10
2019-02-11T19:56:39.006Z,4.10
2019-02-11T19:59:07.921Z,4.10
2019-02-11T20:01:38.841Z,4.00
2019-02-11T20:04:10.546Z,4.10
2019-02-11T20:06:42.259Z,4.10
2019-02-11T20:09:11.694Z,4.00
2019-02-11T20:11:51.634Z,4.00
2019-02-11T20:14:21.969Z,4.10
2019-02-11T20:16:51.776Z,4.10
2019-02-11T20:19:22.018Z,4.10
2019-02-11T20:21:51.880Z,4.10
2019-02-11T20:24:20.984Z,4.10
2019-02-11T20:26:50.005Z,4.10
2019-02-11T20:29:19.210Z,4.10
2019-02-11T20:31:48.458Z,4.10
2019-02-11T20:34:17.463Z,4.20
2019-02-11T20:36:46.275Z,4.20
2019-02-11T20:39:15.284Z,4.20
2019-02-11T20:41:44.206Z,4.20
2019-02-11T20:44:13.197Z,4.20
2019-02-11T20:46:42.839Z,4.20
2019-02-11T20:49:11.691Z,4.20
2019-02-11T20:51:40.514Z,4.20
2019-02-11T20:54:09.519Z,4.20
2019-02-11T20:56:38.465Z,4.20
2019-02-11T20:59:07.399Z,4.20
2019-02-11T21:01:36.333Z,4.20
2019-02-11T21:04:05.264Z,4.20
2019-02-11T21:06:34.264Z,4.20
2019-02-11T21:09:04.258Z,4.30
2019-02-11T21:11:33.168Z,4.30
2019-02-11T21:14:02.017Z,4.30
2019-02-11T21:16:30.934Z,4.30
2019-02-11T21:18:59.759Z,4.30
2019-02-11T21:21:28.617Z,4.30
2019-02-11T21:23:57.503Z,4.30
2019-02-11T21:26:26.348Z,4.30
2019-02-11T21:28:55.172Z,4.30
2019-02-11T21:31:24.041Z,4.30
2019-02-11T21:33:52.892Z,4.30
2019-02-11T21:36:21.771Z,4.30
2019-02-11T21:38:50.662Z,4.30
2019-02-11T21:41:19.503Z,4.30
2019-02-11T21:43:48.316Z,4.30
2019-02-11T21:46:17.151Z,4.30
2019-02-11T21:48:46.055Z,4.30
2019-02-11T21:51:14.902Z,4.30
2019-02-11T21:53:43.731Z,4.30
2019-02-11T21:56:12.601Z,4.30
2019-02-11T21:58:41.458Z,4.30
2019-02-11T22:01:10.331Z,4.30
2019-02-11T22:03:39.229Z,4.30
2019-02-11T22:06:08.070Z,4.30
2019-02-11T22:08:36.909Z,4.30
2019-02-11T22:11:05.762Z,4.30
2019-02-11T22:13:34.569Z,4.30
2019-02-11T22:16:03.395Z,4.30
2019-02-11T22:18:32.303Z,4.30
2019-02-11T22:21:01.223Z,4.30
2019-02-11T22:23:30.054Z,4.30
2019-02-11T22:25:59.025Z,4.40
2019-02-11T22:28:27.954Z,4.40
2019-02-11T22:30:56.780Z,4.40
2019-02-11T22:33:25.659Z,4.40
2019-02-11T22:35:54.491Z,4.40
2019-02-11T22:38:23.339Z,4.40
2019-02-11T22:40:52.247Z,4.40
2019-02-11T22:43:21.084Z,4.40
2019-02-11T22:45:49.910Z,4.40
2019-02-11T22:48:18.771Z,4.40
2019-02-11T22:50:47.593Z,4.40
2019-02-11T22:53:16.468Z,4.40
2019-02-11T22:55:45.510Z,4.40
2019-02-11T22:58:14.462Z,4.40
2019-02-11T23:00:51.573Z,4.40
2019-02-11T23:03:20.688Z,4.40
2019-02-11T23:05:49.574Z,4.40
2019-02-11T23:08:18.555Z,4.40
2019-02-11T23:10:47.759Z,4.40
2019-02-11T23:13:16.738Z,4.40
2019-02-11T23:15:45.650Z,4.30
2019-02-11T23:18:14.536Z,4.30
2019-02-11T23:20:51.491Z,4.20
2019-02-11T23:23:17.004Z,4.20
2019-02-11T23:25:46.036Z,4.20
2019-02-11T23:28:14.915Z,4.10
2019-02-11T23:30:43.995Z,4.10
2019-02-11T23:33:12.911Z,4.10
2019-02-11T23:35:41.751Z,4.10
2019-02-11T23:38:10.763Z,4.00
2019-02-11T23:40:39.717Z,4.00
2019-02-11T23:43:08.699Z,4.00
2019-02-11T23:45:37.720Z,4.10
2019-02-11T23:48:06.684Z,4.00
2019-02-11T23:50:35.696Z,4.00
2019-02-11T23:53:04.584Z,4.00
2019-02-11T23:55:33.511Z,4.00
2019-02-11T23:58:02.342Z,4.00
